sensor_id;sensor_type;location;lat;lon;timestamp;P1;durP1;ratioP1;P2;durP2;ratioP2
21894;SDS011;11112;51.270;7.224;2023-02-12T00:02:23;85.60;;;47.20;;
21894;SDS011;11112;51.270;7.224;2023-02-12T00:04:50;78.28;;;45.35;;
21894;SDS011;11112;51.270;7.224;2023-02-12T00:07:17;84.40;;;47.05;;
21894;SDS011;11112;51.270;7.224;2023-02-12T00:09:44;86.97;;;46.95;;
21894;SDS011;11112;51.270;7.224;2023-02-12T00:12:13;82.85;;;46.53;;
21894;SDS011;11112;51.270;7.224;2023-02-12T00:14:40;85.30;;;46.97;;
21894;SDS011;11112;51.270;7.224;2023-02-12T00:17:14;90.32;;;47.70;;
21894;SDS011;11112;51.270;7.224;2023-02-12T00:19:41;86.80;;;46.97;;
21894;SDS011;11112;51.270;7.224;2023-02-12T00:22:08;84.63;;;46.35;;
21894;SDS011;11112;51.270;7.224;2023-02-12T00:24:36;83.75;;;46.67;;
21894;SDS011;11112;51.270;7.224;2023-02-12T00:27:03;84.18;;;47.47;;
21894;SDS011;11112;51.270;7.224;2023-02-12T00:29:30;86.03;;;46.13;;
21894;SDS011;11112;51.270;7.224;2023-02-12T00:31:57;79.30;;;45.83;;
21894;SDS011;11112;51.270;7.224;2023-02-12T00:34:26;83.15;;;46.58;;
21894;SDS011;11112;51.270;7.224;2023-02-12T00:36:53;81.93;;;46.08;;
21894;SDS011;11112;51.270;7.224;2023-02-12T00:39:20;81.70;;;44.80;;
21894;SDS011;11112;51.270;7.224;2023-02-12T00:41:47;84.40;;;46.67;;
21894;SDS011;11112;51.270;7.224;2023-02-12T00:44:15;82.30;;;45.85;;
21894;SDS011;11112;51.270;7.224;2023-02-12T00:46:42;80.40;;;45.25;;
21894;SDS011;11112;51.270;7.224;2023-02-12T00:49:09;82.72;;;46.88;;
21894;SDS011;11112;51.270;7.224;2023-02-12T00:51:39;83.38;;;46.88;;
21894;SDS011;11112;51.270;7.224;2023-02-12T00:54:06;82.60;;;45.80;;
21894;SDS011;11112;51.270;7.224;2023-02-12T00:56:33;84.22;;;46.22;;
21894;SDS011;11112;51.270;7.224;2023-02-12T00:59:00;87.50;;;47.53;;
21894;SDS011;11112;51.270;7.224;2023-02-12T01:01:27;83.65;;;45.00;;
21894;SDS011;11112;51.270;7.224;2023-02-12T01:03:54;87.18;;;45.78;;
21894;SDS011;11112;51.270;7.224;2023-02-12T01:06:21;84.28;;;46.22;;
21894;SDS011;11112;51.270;7.224;2023-02-12T01:08:51;81.95;;;44.72;;
21894;SDS011;11112;51.270;7.224;2023-02-12T01:11:19;79.25;;;43.97;;
21894;SDS011;11112;51.270;7.224;2023-02-12T01:13:46;78.28;;;45.13;;
21894;SDS011;11112;51.270;7.224;2023-02-12T01:16:15;82.15;;;45.33;;
21894;SDS011;11112;51.270;7.224;2023-02-12T01:18:44;81.60;;;44.38;;
21894;SDS011;11112;51.270;7.224;2023-02-12T01:21:12;83.25;;;44.72;;
21894;SDS011;11112;51.270;7.224;2023-02-12T01:23:42;79.63;;;45.05;;
21894;SDS011;11112;51.270;7.224;2023-02-12T01:26:11;75.72;;;43.05;;
21894;SDS011;11112;51.270;7.224;2023-02-12T01:28:40;77.75;;;43.67;;
21894;SDS011;11112;51.270;7.224;2023-02-12T01:31:09;79.40;;;43.17;;
21894;SDS011;11112;51.270;7.224;2023-02-12T01:33:38;79.43;;;44.28;;
21894;SDS011;11112;51.270;7.224;2023-02-12T01:36:06;75.53;;;43.60;;
21894;SDS011;11112;51.270;7.224;2023-02-12T01:38:35;77.63;;;43.65;;
21894;SDS011;11112;51.270;7.224;2023-02-12T01:41:03;75.18;;;43.03;;
21894;SDS011;11112;51.270;7.224;2023-02-12T01:43:34;77.10;;;43.85;;
21894;SDS011;11112;51.270;7.224;2023-02-12T01:46:02;76.75;;;44.50;;
21894;SDS011;11112;51.270;7.224;2023-02-12T01:48:34;80.18;;;44.55;;
21894;SDS011;11112;51.270;7.224;2023-02-12T01:51:04;77.43;;;42.85;;
21894;SDS011;11112;51.270;7.224;2023-02-12T01:53:36;76.72;;;43.85;;
21894;SDS011;11112;51.270;7.224;2023-02-12T01:56:08;77.10;;;43.67;;
21894;SDS011;11112;51.270;7.224;2023-02-12T01:58:38;76.20;;;43.28;;
21894;SDS011;11112;51.270;7.224;2023-02-12T02:01:09;77.70;;;43.63;;
21894;SDS011;11112;51.270;7.224;2023-02-12T02:06:10;73.22;;;41.60;;
21894;SDS011;11112;51.270;7.224;2023-02-12T02:08:40;77.57;;;43.20;;
21894;SDS011;11112;51.270;7.224;2023-02-12T02:11:08;72.90;;;41.78;;
21894;SDS011;11112;51.270;7.224;2023-02-12T02:13:51;72.78;;;41.90;;
21894;SDS011;11112;51.270;7.224;2023-02-12T02:16:36;75.72;;;42.08;;
21894;SDS011;11112;51.270;7.224;2023-02-12T02:19:08;74.57;;;41.78;;
21894;SDS011;11112;51.270;7.224;2023-02-12T02:28:05;75.30;;;42.28;;
21894;SDS011;11112;51.270;7.224;2023-02-12T02:30:55;75.45;;;42.20;;
21894;SDS011;11112;51.270;7.224;2023-02-12T02:33:28;71.75;;;41.08;;
21894;SDS011;11112;51.270;7.224;2023-02-12T02:36:08;76.13;;;41.40;;
21894;SDS011;11112;51.270;7.224;2023-02-12T02:38:47;70.13;;;40.05;;
21894;SDS011;11112;51.270;7.224;2023-02-12T02:41:23;76.72;;;41.95;;
21894;SDS011;11112;51.270;7.224;2023-02-12T02:43:58;73.40;;;41.47;;
21894;SDS011;11112;51.270;7.224;2023-02-12T02:46:40;78.07;;;42.45;;
21894;SDS011;11112;51.270;7.224;2023-02-12T02:49:17;72.90;;;41.58;;
21894;SDS011;11112;51.270;7.224;2023-02-12T02:51:49;77.15;;;43.08;;
21894;SDS011;11112;51.270;7.224;2023-02-12T02:54:22;76.10;;;42.10;;
21894;SDS011;11112;51.270;7.224;2023-02-12T02:56:56;78.75;;;42.35;;
21894;SDS011;11112;51.270;7.224;2023-02-12T02:59:42;76.68;;;42.67;;
21894;SDS011;11112;51.270;7.224;2023-02-12T03:02:19;79.25;;;43.58;;
21894;SDS011;11112;51.270;7.224;2023-02-12T03:04:50;77.95;;;43.20;;
21894;SDS011;11112;51.270;7.224;2023-02-12T03:07:23;78.63;;;43.47;;
21894;SDS011;11112;51.270;7.224;2023-02-12T03:09:56;75.80;;;41.70;;
21894;SDS011;11112;51.270;7.224;2023-02-12T03:12:28;74.57;;;42.15;;
21894;SDS011;11112;51.270;7.224;2023-02-12T03:15:02;75.88;;;42.50;;
21894;SDS011;11112;51.270;7.224;2023-02-12T03:17:38;74.35;;;42.17;;
21894;SDS011;11112;51.270;7.224;2023-02-12T03:20:09;72.47;;;41.67;;
21894;SDS011;11112;51.270;7.224;2023-02-12T03:22:45;75.65;;;43.63;;
21894;SDS011;11112;51.270;7.224;2023-02-12T03:25:17;70.97;;;41.03;;
21894;SDS011;11112;51.270;7.224;2023-02-12T03:27:50;71.43;;;41.97;;
21894;SDS011;11112;51.270;7.224;2023-02-12T03:30:22;74.82;;;41.63;;
21894;SDS011;11112;51.270;7.224;2023-02-12T03:33:00;70.68;;;40.13;;
21894;SDS011;11112;51.270;7.224;2023-02-12T03:35:39;72.22;;;40.38;;
21894;SDS011;11112;51.270;7.224;2023-02-12T03:38:13;70.15;;;40.55;;
21894;SDS011;11112;51.270;7.224;2023-02-12T03:40:59;70.95;;;40.08;;
21894;SDS011;11112;51.270;7.224;2023-02-12T03:46:07;70.97;;;38.70;;
21894;SDS011;11112;51.270;7.224;2023-02-12T03:48:45;69.15;;;39.60;;
21894;SDS011;11112;51.270;7.224;2023-02-12T03:51:24;67.38;;;39.60;;
21894;SDS011;11112;51.270;7.224;2023-02-12T03:53:56;68.60;;;39.40;;
21894;SDS011;11112;51.270;7.224;2023-02-12T03:56:24;67.40;;;39.67;;
21894;SDS011;11112;51.270;7.224;2023-02-12T03:58:57;71.35;;;38.63;;
21894;SDS011;11112;51.270;7.224;2023-02-12T04:01:26;68.95;;;38.30;;
21894;SDS011;11112;51.270;7.224;2023-02-12T04:03:55;68.07;;;40.13;;
21894;SDS011;11112;51.270;7.224;2023-02-12T04:06:24;70.93;;;40.47;;
21894;SDS011;11112;51.270;7.224;2023-02-12T04:08:54;70.40;;;39.70;;
21894;SDS011;11112;51.270;7.224;2023-02-12T04:11:28;69.05;;;38.75;;
21894;SDS011;11112;51.270;7.224;2023-02-12T04:14:09;70.43;;;38.30;;
21894;SDS011;11112;51.270;7.224;2023-02-12T04:16:47;64.53;;;38.47;;
21894;SDS011;11112;51.270;7.224;2023-02-12T04:19:23;69.55;;;39.47;;
21894;SDS011;11112;51.270;7.224;2023-02-12T04:22:00;70.38;;;39.80;;
21894;SDS011;11112;51.270;7.224;2023-02-12T04:24:43;72.85;;;39.88;;
21894;SDS011;11112;51.270;7.224;2023-02-12T04:27:17;70.90;;;39.33;;
21894;SDS011;11112;51.270;7.224;2023-02-12T04:29:53;66.75;;;40.33;;
21894;SDS011;11112;51.270;7.224;2023-02-12T04:32:27;69.18;;;39.10;;
21894;SDS011;11112;51.270;7.224;2023-02-12T04:35:03;69.95;;;39.13;;
21894;SDS011;11112;51.270;7.224;2023-02-12T04:37:40;66.18;;;37.55;;
21894;SDS011;11112;51.270;7.224;2023-02-12T04:40:12;66.15;;;39.05;;
21894;SDS011;11112;51.270;7.224;2023-02-12T04:42:43;69.25;;;39.55;;
21894;SDS011;11112;51.270;7.224;2023-02-12T04:45:12;69.43;;;40.03;;
21894;SDS011;11112;51.270;7.224;2023-02-12T04:47:42;69.38;;;39.25;;
21894;SDS011;11112;51.270;7.224;2023-02-12T04:50:12;70.43;;;39.83;;
21894;SDS011;11112;51.270;7.224;2023-02-12T04:52:40;69.57;;;40.05;;
21894;SDS011;11112;51.270;7.224;2023-02-12T04:55:07;69.90;;;39.50;;
21894;SDS011;11112;51.270;7.224;2023-02-12T04:57:35;70.45;;;39.55;;
21894;SDS011;11112;51.270;7.224;2023-02-12T05:00:02;71.00;;;40.03;;
21894;SDS011;11112;51.270;7.224;2023-02-12T05:02:32;69.93;;;40.58;;
21894;SDS011;11112;51.270;7.224;2023-02-12T05:05:00;69.85;;;38.90;;
21894;SDS011;11112;51.270;7.224;2023-02-12T05:07:29;65.65;;;39.13;;
21894;SDS011;11112;51.270;7.224;2023-02-12T05:09:56;66.05;;;38.80;;
21894;SDS011;11112;51.270;7.224;2023-02-12T05:12:24;65.22;;;38.63;;
21894;SDS011;11112;51.270;7.224;2023-02-12T05:14:51;71.45;;;41.05;;
21894;SDS011;11112;51.270;7.224;2023-02-12T05:17:20;71.00;;;40.58;;
21894;SDS011;11112;51.270;7.224;2023-02-12T05:19:47;71.30;;;39.58;;
21894;SDS011;11112;51.270;7.224;2023-02-12T05:22:15;67.05;;;38.65;;
21894;SDS011;11112;51.270;7.224;2023-02-12T05:24:44;73.28;;;40.03;;
21894;SDS011;11112;51.270;7.224;2023-02-12T05:27:11;71.80;;;40.40;;
21894;SDS011;11112;51.270;7.224;2023-02-12T05:29:38;71.90;;;40.88;;
21894;SDS011;11112;51.270;7.224;2023-02-12T05:32:06;71.57;;;39.95;;
21894;SDS011;11112;51.270;7.224;2023-02-12T05:34:34;73.95;;;41.45;;
21894;SDS011;11112;51.270;7.224;2023-02-12T05:37:01;68.95;;;38.72;;
21894;SDS011;11112;51.270;7.224;2023-02-12T05:39:29;68.45;;;39.92;;
21894;SDS011;11112;51.270;7.224;2023-02-12T05:41:57;71.25;;;40.60;;
21894;SDS011;11112;51.270;7.224;2023-02-12T05:44:24;69.35;;;39.22;;
21894;SDS011;11112;51.270;7.224;2023-02-12T05:46:52;70.20;;;39.05;;
21894;SDS011;11112;51.270;7.224;2023-02-12T05:49:19;67.68;;;37.97;;
21894;SDS011;11112;51.270;7.224;2023-02-12T05:51:47;67.63;;;37.97;;
21894;SDS011;11112;51.270;7.224;2023-02-12T05:54:14;68.75;;;39.03;;
21894;SDS011;11112;51.270;7.224;2023-02-12T05:56:42;67.20;;;38.28;;
21894;SDS011;11112;51.270;7.224;2023-02-12T05:59:13;66.07;;;38.65;;
21894;SDS011;11112;51.270;7.224;2023-02-12T06:01:44;65.03;;;37.00;;
21894;SDS011;11112;51.270;7.224;2023-02-12T06:04:14;68.13;;;38.10;;
21894;SDS011;11112;51.270;7.224;2023-02-12T06:06:47;66.70;;;37.60;;
21894;SDS011;11112;51.270;7.224;2023-02-12T06:09:14;66.28;;;37.92;;
21894;SDS011;11112;51.270;7.224;2023-02-12T06:11:43;67.43;;;39.22;;
21894;SDS011;11112;51.270;7.224;2023-02-12T06:14:13;62.95;;;37.65;;
21894;SDS011;11112;51.270;7.224;2023-02-12T06:16:43;67.82;;;39.38;;
21894;SDS011;11112;51.270;7.224;2023-02-12T06:19:13;67.13;;;38.00;;
21894;SDS011;11112;51.270;7.224;2023-02-12T06:21:42;65.82;;;37.58;;
21894;SDS011;11112;51.270;7.224;2023-02-12T06:24:10;61.30;;;35.65;;
21894;SDS011;11112;51.270;7.224;2023-02-12T06:26:39;59.42;;;35.05;;
21894;SDS011;11112;51.270;7.224;2023-02-12T06:29:07;65.05;;;37.60;;
21894;SDS011;11112;51.270;7.224;2023-02-12T06:31:36;65.80;;;36.65;;
21894;SDS011;11112;51.270;7.224;2023-02-12T06:34:04;67.70;;;36.50;;
21894;SDS011;11112;51.270;7.224;2023-02-12T06:36:35;61.88;;;37.33;;
21894;SDS011;11112;51.270;7.224;2023-02-12T06:39:03;66.28;;;37.47;;
21894;SDS011;11112;51.270;7.224;2023-02-12T06:41:31;65.03;;;35.92;;
21894;SDS011;11112;51.270;7.224;2023-02-12T06:43:58;64.57;;;37.97;;
21894;SDS011;11112;51.270;7.224;2023-02-12T06:46:25;65.95;;;37.78;;
21894;SDS011;11112;51.270;7.224;2023-02-12T06:48:55;65.15;;;37.70;;
21894;SDS011;11112;51.270;7.224;2023-02-12T06:51:24;63.33;;;38.28;;
21894;SDS011;11112;51.270;7.224;2023-02-12T06:53:54;66.00;;;37.80;;
21894;SDS011;11112;51.270;7.224;2023-02-12T06:56:23;62.55;;;37.35;;
21894;SDS011;11112;51.270;7.224;2023-02-12T06:58:52;68.47;;;38.88;;
21894;SDS011;11112;51.270;7.224;2023-02-12T07:01:25;65.97;;;38.40;;
21894;SDS011;11112;51.270;7.224;2023-02-12T07:03:56;68.65;;;38.42;;
21894;SDS011;11112;51.270;7.224;2023-02-12T07:06:26;67.93;;;38.47;;
21894;SDS011;11112;51.270;7.224;2023-02-12T07:08:55;64.28;;;38.55;;
21894;SDS011;11112;51.270;7.224;2023-02-12T07:11:23;65.13;;;37.13;;
21894;SDS011;11112;51.270;7.224;2023-02-12T07:13:52;63.83;;;37.22;;
21894;SDS011;11112;51.270;7.224;2023-02-12T07:16:19;67.03;;;38.60;;
21894;SDS011;11112;51.270;7.224;2023-02-12T07:18:50;64.93;;;37.15;;
21894;SDS011;11112;51.270;7.224;2023-02-12T07:21:19;65.03;;;38.67;;
21894;SDS011;11112;51.270;7.224;2023-02-12T07:23:47;64.72;;;37.53;;
21894;SDS011;11112;51.270;7.224;2023-02-12T07:26:16;67.25;;;37.38;;
21894;SDS011;11112;51.270;7.224;2023-02-12T07:28:46;64.90;;;38.00;;
21894;SDS011;11112;51.270;7.224;2023-02-12T07:31:14;63.78;;;37.13;;
21894;SDS011;11112;51.270;7.224;2023-02-12T07:33:44;65.93;;;37.72;;
21894;SDS011;11112;51.270;7.224;2023-02-12T07:36:13;63.85;;;37.60;;
21894;SDS011;11112;51.270;7.224;2023-02-12T07:38:46;67.35;;;39.28;;
21894;SDS011;11112;51.270;7.224;2023-02-12T07:41:14;71.28;;;40.03;;
21894;SDS011;11112;51.270;7.224;2023-02-12T07:43:46;71.35;;;39.03;;
21894;SDS011;11112;51.270;7.224;2023-02-12T07:46:15;72.25;;;40.90;;
21894;SDS011;11112;51.270;7.224;2023-02-12T07:48:45;73.50;;;39.75;;
21894;SDS011;11112;51.270;7.224;2023-02-12T07:51:13;74.82;;;41.60;;
21894;SDS011;11112;51.270;7.224;2023-02-12T07:53:43;73.85;;;41.08;;
21894;SDS011;11112;51.270;7.224;2023-02-12T07:56:14;68.20;;;39.28;;
21894;SDS011;11112;51.270;7.224;2023-02-12T07:58:43;73.00;;;40.53;;
21894;SDS011;11112;51.270;7.224;2023-02-12T08:01:13;70.38;;;39.72;;
21894;SDS011;11112;51.270;7.224;2023-02-12T08:03:43;68.20;;;39.50;;
21894;SDS011;11112;51.270;7.224;2023-02-12T08:06:13;78.03;;;43.88;;
21894;SDS011;11112;51.270;7.224;2023-02-12T08:08:43;74.30;;;42.13;;
21894;SDS011;11112;51.270;7.224;2023-02-12T08:11:12;71.07;;;41.80;;
21894;SDS011;11112;51.270;7.224;2023-02-12T08:13:42;70.88;;;39.30;;
21894;SDS011;11112;51.270;7.224;2023-02-12T08:16:10;71.40;;;40.65;;
21894;SDS011;11112;51.270;7.224;2023-02-12T08:18:39;71.82;;;41.58;;
21894;SDS011;11112;51.270;7.224;2023-02-12T08:21:07;70.95;;;39.63;;
21894;SDS011;11112;51.270;7.224;2023-02-12T08:23:36;70.10;;;41.03;;
21894;SDS011;11112;51.270;7.224;2023-02-12T08:26:05;71.50;;;41.53;;
21894;SDS011;11112;51.270;7.224;2023-02-12T08:28:37;69.65;;;40.55;;
21894;SDS011;11112;51.270;7.224;2023-02-12T08:31:09;71.88;;;40.65;;
21894;SDS011;11112;51.270;7.224;2023-02-12T08:33:38;72.50;;;39.85;;
21894;SDS011;11112;51.270;7.224;2023-02-12T08:36:07;70.70;;;41.83;;
21894;SDS011;11112;51.270;7.224;2023-02-12T08:38:38;75.00;;;41.42;;
21894;SDS011;11112;51.270;7.224;2023-02-12T08:41:08;73.35;;;41.70;;
21894;SDS011;11112;51.270;7.224;2023-02-12T08:43:40;75.15;;;43.30;;
21894;SDS011;11112;51.270;7.224;2023-02-12T08:46:09;74.65;;;42.97;;
21894;SDS011;11112;51.270;7.224;2023-02-12T08:48:38;74.68;;;40.88;;
21894;SDS011;11112;51.270;7.224;2023-02-12T08:51:08;76.10;;;42.78;;
21894;SDS011;11112;51.270;7.224;2023-02-12T08:53:39;74.40;;;43.35;;
21894;SDS011;11112;51.270;7.224;2023-02-12T08:56:09;76.90;;;42.38;;
21894;SDS011;11112;51.270;7.224;2023-02-12T08:58:37;70.60;;;41.92;;
21894;SDS011;11112;51.270;7.224;2023-02-12T09:01:08;72.72;;;42.10;;
21894;SDS011;11112;51.270;7.224;2023-02-12T09:03:37;75.65;;;42.50;;
21894;SDS011;11112;51.270;7.224;2023-02-12T09:06:05;74.22;;;43.40;;
21894;SDS011;11112;51.270;7.224;2023-02-12T09:08:33;79.13;;;42.03;;
21894;SDS011;11112;51.270;7.224;2023-02-12T09:11:05;73.32;;;41.80;;
21894;SDS011;11112;51.270;7.224;2023-02-12T09:13:34;70.28;;;41.03;;
21894;SDS011;11112;51.270;7.224;2023-02-12T09:16:05;72.03;;;39.50;;
21894;SDS011;11112;51.270;7.224;2023-02-12T09:18:33;65.95;;;39.70;;
21894;SDS011;11112;51.270;7.224;2023-02-12T09:21:03;65.88;;;39.00;;
21894;SDS011;11112;51.270;7.224;2023-02-12T09:23:32;69.10;;;40.15;;
21894;SDS011;11112;51.270;7.224;2023-02-12T09:26:02;69.85;;;40.75;;
21894;SDS011;11112;51.270;7.224;2023-02-12T09:28:31;66.07;;;39.28;;
21894;SDS011;11112;51.270;7.224;2023-02-12T09:30:58;65.43;;;38.63;;
21894;SDS011;11112;51.270;7.224;2023-02-12T09:33:32;59.13;;;36.13;;
21894;SDS011;11112;51.270;7.224;2023-02-12T09:36:03;55.30;;;33.47;;
21894;SDS011;11112;51.270;7.224;2023-02-12T09:38:34;60.33;;;36.42;;
21894;SDS011;11112;51.270;7.224;2023-02-12T09:41:17;65.50;;;38.47;;
21894;SDS011;11112;51.270;7.224;2023-02-12T09:44:30;61.75;;;36.90;;
21894;SDS011;11112;51.270;7.224;2023-02-12T09:47:11;62.03;;;36.90;;
21894;SDS011;11112;51.270;7.224;2023-02-12T09:49:49;64.07;;;38.50;;
21894;SDS011;11112;51.270;7.224;2023-02-12T09:52:32;60.72;;;36.17;;
21894;SDS011;11112;51.270;7.224;2023-02-12T09:55:00;54.95;;;34.67;;
21894;SDS011;11112;51.270;7.224;2023-02-12T09:57:29;53.05;;;34.08;;
21894;SDS011;11112;51.270;7.224;2023-02-12T10:00:00;60.03;;;35.58;;
21894;SDS011;11112;51.270;7.224;2023-02-12T10:02:33;55.25;;;33.03;;
21894;SDS011;11112;51.270;7.224;2023-02-12T10:05:02;58.17;;;33.75;;
21894;SDS011;11112;51.270;7.224;2023-02-12T10:07:38;53.70;;;32.28;;
21894;SDS011;11112;51.270;7.224;2023-02-12T10:10:22;51.97;;;31.77;;
21894;SDS011;11112;51.270;7.224;2023-02-12T10:13:03;52.38;;;32.28;;
21894;SDS011;11112;51.270;7.224;2023-02-12T10:15:34;47.42;;;28.10;;
21894;SDS011;11112;51.270;7.224;2023-02-12T10:18:10;43.95;;;28.88;;
21894;SDS011;11112;51.270;7.224;2023-02-12T10:21:04;49.92;;;31.35;;
21894;SDS011;11112;51.270;7.224;2023-02-12T10:23:51;56.17;;;32.65;;
21894;SDS011;11112;51.270;7.224;2023-02-12T10:26:45;51.38;;;32.17;;
21894;SDS011;11112;51.270;7.224;2023-02-12T10:29:16;49.45;;;31.63;;
21894;SDS011;11112;51.270;7.224;2023-02-12T10:31:48;53.13;;;32.33;;
21894;SDS011;11112;51.270;7.224;2023-02-12T10:34:24;56.03;;;32.55;;
21894;SDS011;11112;51.270;7.224;2023-02-12T10:36:58;53.67;;;32.47;;
21894;SDS011;11112;51.270;7.224;2023-02-12T10:42:02;57.47;;;33.10;;
21894;SDS011;11112;51.270;7.224;2023-02-12T10:44:37;55.30;;;33.47;;
21894;SDS011;11112;51.270;7.224;2023-02-12T10:47:08;54.25;;;33.03;;
21894;SDS011;11112;51.270;7.224;2023-02-12T10:49:42;52.13;;;33.10;;
21894;SDS011;11112;51.270;7.224;2023-02-12T10:52:11;50.08;;;31.27;;
21894;SDS011;11112;51.270;7.224;2023-02-12T10:54:47;55.28;;;31.67;;
21894;SDS011;11112;51.270;7.224;2023-02-12T10:57:18;51.30;;;32.15;;
21894;SDS011;11112;51.270;7.224;2023-02-12T10:59:49;52.85;;;32.60;;
21894;SDS011;11112;51.270;7.224;2023-02-12T11:02:23;52.53;;;32.50;;
21894;SDS011;11112;51.270;7.224;2023-02-12T11:04:54;51.63;;;32.50;;
21894;SDS011;11112;51.270;7.224;2023-02-12T11:07:23;52.75;;;32.38;;
21894;SDS011;11112;51.270;7.224;2023-02-12T11:09:53;49.13;;;30.55;;
21894;SDS011;11112;51.270;7.224;2023-02-12T11:12:25;51.92;;;31.98;;
21894;SDS011;11112;51.270;7.224;2023-02-12T11:15:00;49.30;;;30.95;;
21894;SDS011;11112;51.270;7.224;2023-02-12T11:17:34;49.80;;;30.52;;
21894;SDS011;11112;51.270;7.224;2023-02-12T11:20:23;47.83;;;29.35;;
21894;SDS011;11112;51.270;7.224;2023-02-12T11:22:54;48.97;;;28.42;;
21894;SDS011;11112;51.270;7.224;2023-02-12T11:25:25;46.72;;;28.58;;
21894;SDS011;11112;51.270;7.224;2023-02-12T11:28:04;46.03;;;28.85;;
21894;SDS011;11112;51.270;7.224;2023-02-12T11:30:47;44.50;;;29.52;;
21894;SDS011;11112;51.270;7.224;2023-02-12T11:33:22;46.03;;;28.95;;
21894;SDS011;11112;51.270;7.224;2023-02-12T11:35:59;43.85;;;27.73;;
21894;SDS011;11112;51.270;7.224;2023-02-12T11:38:34;47.03;;;28.42;;
21894;SDS011;11112;51.270;7.224;2023-02-12T11:41:06;41.28;;;26.17;;
21894;SDS011;11112;51.270;7.224;2023-02-12T11:43:50;41.63;;;27.00;;
21894;SDS011;11112;51.270;7.224;2023-02-12T11:46:20;41.03;;;26.58;;
21894;SDS011;11112;51.270;7.224;2023-02-12T11:48:50;43.90;;;28.08;;
21894;SDS011;11112;51.270;7.224;2023-02-12T11:51:21;44.53;;;28.15;;
21894;SDS011;11112;51.270;7.224;2023-02-12T11:53:56;45.47;;;28.83;;
21894;SDS011;11112;51.270;7.224;2023-02-12T11:56:38;48.70;;;29.80;;
21894;SDS011;11112;51.270;7.224;2023-02-12T11:59:11;49.90;;;29.85;;
21894;SDS011;11112;51.270;7.224;2023-02-12T12:01:55;48.80;;;30.30;;
21894;SDS011;11112;51.270;7.224;2023-02-12T12:04:29;45.03;;;29.50;;
21894;SDS011;11112;51.270;7.224;2023-02-12T12:07:04;49.70;;;31.05;;
21894;SDS011;11112;51.270;7.224;2023-02-12T12:09:38;46.33;;;29.65;;
21894;SDS011;11112;51.270;7.224;2023-02-12T12:12:12;45.22;;;29.65;;
21894;SDS011;11112;51.270;7.224;2023-02-12T12:14:47;48.78;;;29.95;;
21894;SDS011;11112;51.270;7.224;2023-02-12T12:17:37;49.05;;;29.65;;
21894;SDS011;11112;51.270;7.224;2023-02-12T12:23:01;46.63;;;28.80;;
21894;SDS011;11112;51.270;7.224;2023-02-12T12:25:34;44.00;;;28.02;;
21894;SDS011;11112;51.270;7.224;2023-02-12T12:28:14;45.55;;;27.38;;
21894;SDS011;11112;51.270;7.224;2023-02-12T12:30:58;52.65;;;30.27;;
21894;SDS011;11112;51.270;7.224;2023-02-12T12:33:36;53.38;;;30.08;;
21894;SDS011;11112;51.270;7.224;2023-02-12T12:39:04;46.05;;;28.50;;
21894;SDS011;11112;51.270;7.224;2023-02-12T12:41:46;46.50;;;27.70;;
21894;SDS011;11112;51.270;7.224;2023-02-12T12:44:37;47.75;;;29.02;;
21894;SDS011;11112;51.270;7.224;2023-02-12T12:47:40;51.95;;;29.13;;
21894;SDS011;11112;51.270;7.224;2023-02-12T12:50:27;46.70;;;27.15;;
21894;SDS011;11112;51.270;7.224;2023-02-12T12:53:15;45.42;;;27.05;;
21894;SDS011;11112;51.270;7.224;2023-02-12T12:59:13;42.35;;;27.30;;
21894;SDS011;11112;51.270;7.224;2023-02-12T13:05:37;46.25;;;27.55;;
21894;SDS011;11112;51.270;7.224;2023-02-12T13:08:30;46.05;;;26.88;;
21894;SDS011;11112;51.270;7.224;2023-02-12T13:11:39;43.35;;;25.90;;
21894;SDS011;11112;51.270;7.224;2023-02-12T13:14:24;50.42;;;28.92;;
21894;SDS011;11112;51.270;7.224;2023-02-12T13:17:08;51.78;;;30.52;;
21894;SDS011;11112;51.270;7.224;2023-02-12T13:19:45;48.65;;;28.73;;
21894;SDS011;11112;51.270;7.224;2023-02-12T13:22:25;50.40;;;28.27;;
21894;SDS011;11112;51.270;7.224;2023-02-12T13:25:00;43.70;;;27.00;;
21894;SDS011;11112;51.270;7.224;2023-02-12T13:27:42;47.83;;;27.75;;
21894;SDS011;11112;51.270;7.224;2023-02-12T13:30:17;45.75;;;27.85;;
21894;SDS011;11112;51.270;7.224;2023-02-12T13:32:49;45.42;;;26.88;;
21894;SDS011;11112;51.270;7.224;2023-02-12T13:35:27;49.42;;;28.67;;
21894;SDS011;11112;51.270;7.224;2023-02-12T13:37:57;43.38;;;27.45;;
21894;SDS011;11112;51.270;7.224;2023-02-12T13:40:31;44.45;;;28.17;;
21894;SDS011;11112;51.270;7.224;2023-02-12T13:43:04;43.40;;;26.23;;
21894;SDS011;11112;51.270;7.224;2023-02-12T13:45:44;44.40;;;26.17;;
21894;SDS011;11112;51.270;7.224;2023-02-12T13:48:27;41.13;;;24.55;;
21894;SDS011;11112;51.270;7.224;2023-02-12T13:51:10;39.53;;;23.75;;
21894;SDS011;11112;51.270;7.224;2023-02-12T13:53:51;39.03;;;24.33;;
21894;SDS011;11112;51.270;7.224;2023-02-12T13:56:33;40.72;;;24.48;;
21894;SDS011;11112;51.270;7.224;2023-02-12T14:02:26;41.20;;;24.73;;
21894;SDS011;11112;51.270;7.224;2023-02-12T14:05:20;41.65;;;23.20;;
21894;SDS011;11112;51.270;7.224;2023-02-12T14:07:58;37.88;;;22.90;;
21894;SDS011;11112;51.270;7.224;2023-02-12T14:10:30;36.42;;;21.75;;
21894;SDS011;11112;51.270;7.224;2023-02-12T14:13:15;33.20;;;21.35;;
21894;SDS011;11112;51.270;7.224;2023-02-12T14:15:59;36.15;;;21.52;;
21894;SDS011;11112;51.270;7.224;2023-02-12T14:18:50;29.98;;;18.65;;
21894;SDS011;11112;51.270;7.224;2023-02-12T14:27:32;33.72;;;20.42;;
21894;SDS011;11112;51.270;7.224;2023-02-12T14:33:08;31.10;;;19.83;;
21894;SDS011;11112;51.270;7.224;2023-02-12T14:38:56;34.95;;;20.67;;
21894;SDS011;11112;51.270;7.224;2023-02-12T14:41:26;30.77;;;19.02;;
21894;SDS011;11112;51.270;7.224;2023-02-12T14:50:25;30.45;;;18.63;;
21894;SDS011;11112;51.270;7.224;2023-02-12T14:53:05;31.63;;;19.38;;
21894;SDS011;11112;51.270;7.224;2023-02-12T14:55:51;31.05;;;19.20;;
21894;SDS011;11112;51.270;7.224;2023-02-12T14:58:19;28.63;;;18.70;;
21894;SDS011;11112;51.270;7.224;2023-02-12T15:00:51;31.70;;;19.85;;
21894;SDS011;11112;51.270;7.224;2023-02-12T15:03:22;30.88;;;19.33;;
21894;SDS011;11112;51.270;7.224;2023-02-12T15:06:01;29.30;;;19.80;;
21894;SDS011;11112;51.270;7.224;2023-02-12T15:08:36;31.67;;;19.73;;
21894;SDS011;11112;51.270;7.224;2023-02-12T15:14:11;33.92;;;20.98;;
21894;SDS011;11112;51.270;7.224;2023-02-12T15:16:45;31.58;;;20.90;;
21894;SDS011;11112;51.270;7.224;2023-02-12T15:19:23;33.38;;;21.25;;
21894;SDS011;11112;51.270;7.224;2023-02-12T15:22:01;34.92;;;20.90;;
21894;SDS011;11112;51.270;7.224;2023-02-12T15:24:29;34.97;;;21.25;;
21894;SDS011;11112;51.270;7.224;2023-02-12T15:26:56;34.38;;;20.42;;
21894;SDS011;11112;51.270;7.224;2023-02-12T15:29:30;31.98;;;20.10;;
21894;SDS011;11112;51.270;7.224;2023-02-12T15:32:08;32.35;;;20.60;;
21894;SDS011;11112;51.270;7.224;2023-02-12T15:34:44;34.30;;;19.63;;
21894;SDS011;11112;51.270;7.224;2023-02-12T15:37:19;32.35;;;19.10;;
21894;SDS011;11112;51.270;7.224;2023-02-12T15:39:50;31.80;;;21.08;;
21894;SDS011;11112;51.270;7.224;2023-02-12T15:42:28;29.77;;;19.42;;
21894;SDS011;11112;51.270;7.224;2023-02-12T15:45:06;31.33;;;19.70;;
21894;SDS011;11112;51.270;7.224;2023-02-12T15:47:44;32.88;;;19.58;;